createdAt,value
2018-07-31T00:04:36.660Z,23.30
2018-07-31T00:09:39.923Z,23.30
2018-07-31T00:14:43.098Z,23.10
2018-07-31T00:19:46.152Z,23.10
2018-07-31T00:24:49.231Z,23.00
2018-07-31T00:29:52.278Z,23.00
2018-07-31T00:34:55.339Z,23.00
2018-07-31T00:39:58.364Z,22.90
2018-07-31T00:45:01.484Z,22.90
2018-07-31T00:50:04.554Z,22.80
2018-07-31T00:55:07.808Z,22.70
2018-07-31T01:00:10.875Z,22.70
2018-07-31T01:05:14.020Z,22.60
2018-07-31T01:10:17.084Z,22.50
2018-07-31T01:15:20.136Z,22.50
2018-07-31T01:20:23.213Z,22.50
2018-07-31T01:25:26.579Z,22.40
2018-07-31T01:30:29.645Z,22.40
2018-07-31T01:35:32.863Z,22.30
2018-07-31T01:40:35.923Z,22.20
2018-07-31T01:45:38.997Z,22.20
2018-07-31T01:50:42.121Z,22.10
2018-07-31T01:55:45.224Z,22.00
2018-07-31T02:00:48.349Z,21.90
2018-07-31T02:05:51.404Z,21.80
2018-07-31T02:10:54.417Z,21.80
2018-07-31T02:15:57.463Z,21.70
2018-07-31T02:21:00.525Z,21.70
2018-07-31T02:26:03.592Z,21.70
2018-07-31T02:31:06.688Z,21.70
2018-07-31T02:36:09.736Z,21.70
2018-07-31T02:41:13.485Z,21.60
2018-07-31T02:46:16.526Z,21.50
2018-07-31T02:51:19.601Z,21.50
2018-07-31T02:56:22.662Z,21.50
2018-07-31T03:01:25.750Z,21.40
2018-07-31T03:11:31.829Z,21.30
2018-07-31T03:16:35.065Z,21.30
2018-07-31T03:21:38.165Z,21.30
2018-07-31T03:26:41.262Z,21.30
2018-07-31T03:31:44.307Z,21.30
2018-07-31T03:36:47.385Z,21.20
2018-07-31T03:41:50.447Z,21.20
2018-07-31T03:46:53.526Z,21.20
2018-07-31T03:51:56.575Z,21.20
2018-07-31T04:02:02.499Z,21.20
2018-07-31T04:07:05.622Z,21.10
2018-07-31T04:12:08.673Z,21.20
2018-07-31T04:17:11.932Z,21.20
2018-07-31T04:22:14.938Z,21.20
2018-07-31T04:27:17.997Z,21.30
2018-07-31T04:32:21.056Z,21.50
2018-07-31T04:37:24.181Z,21.50
2018-07-31T04:52:33.175Z,21.60
2018-07-31T04:57:36.869Z,21.70
2018-07-31T05:02:39.936Z,21.80
2018-07-31T05:12:45.919Z,22.00
2018-07-31T05:17:49.508Z,22.10
2018-07-31T05:22:52.594Z,22.30
2018-07-31T05:27:56.933Z,22.50
2018-07-31T05:33:00.183Z,22.70
2018-07-31T05:38:03.217Z,22.90
2018-07-31T05:43:06.365Z,23.00
2018-07-31T05:48:09.452Z,23.30
2018-07-31T05:53:12.524Z,23.60
2018-07-31T05:58:15.560Z,23.70
2018-07-31T06:03:18.694Z,24.00
2018-07-31T06:08:21.785Z,24.30
2018-07-31T06:13:24.880Z,24.70
2018-07-31T06:18:27.932Z,25.20
2018-07-31T06:23:30.991Z,26.20
2018-07-31T06:28:34.044Z,27.70
2018-07-31T06:33:37.144Z,29.00
2018-07-31T06:38:40.454Z,30.40
2018-07-31T06:43:43.576Z,31.20
2018-07-31T06:48:46.649Z,31.60
2018-07-31T06:58:52.654Z,31.60
2018-07-31T07:03:55.707Z,31.20
2018-07-31T07:08:58.852Z,31.50
2018-07-31T07:14:01.947Z,32.60
2018-07-31T07:19:05.102Z,33.80
2018-07-31T07:24:08.168Z,34.30
2018-07-31T07:29:11.260Z,34.90
2018-07-31T07:34:14.374Z,35.30
2018-07-31T07:39:17.428Z,35.90
2018-07-31T07:44:20.520Z,35.50
2018-07-31T07:49:23.638Z,35.90
2018-07-31T07:54:26.676Z,36.60
2018-07-31T07:59:29.757Z,36.40
2018-07-31T08:04:32.804Z,36.60
2018-07-31T08:14:38.736Z,36.70
2018-07-31T08:19:41.806Z,36.90
2018-07-31T08:24:44.878Z,37.00
2018-07-31T08:29:48.021Z,37.30
2018-07-31T08:34:51.104Z,37.40
2018-07-31T08:39:54.169Z,36.90
2018-07-31T08:50:00.099Z,37.50
2018-07-31T08:55:03.160Z,37.00
2018-07-31T09:00:07.525Z,35.90
2018-07-31T09:05:10.586Z,35.40
2018-07-31T09:15:10.561Z,34.70
2018-07-31T09:20:13.631Z,34.80
2018-07-31T09:25:16.696Z,34.70
2018-07-31T09:30:19.794Z,34.70
2018-07-31T09:35:22.843Z,34.50
2018-07-31T09:40:25.902Z,34.10
2018-07-31T09:45:29.250Z,33.90
2018-07-31T09:50:32.318Z,33.70
2018-07-31T09:55:35.373Z,33.40
2018-07-31T10:00:43.805Z,33.60
2018-07-31T10:05:46.867Z,33.40
2018-07-31T10:10:51.739Z,33.30
2018-07-31T10:15:54.793Z,33.40
2018-07-31T10:20:57.840Z,33.50
2018-07-31T10:26:00.897Z,33.50
2018-07-31T10:31:03.957Z,33.40
2018-07-31T10:36:06.996Z,33.50
2018-07-31T10:46:12.976Z,33.50
2018-07-31T10:51:16.073Z,33.20
2018-07-31T10:56:19.243Z,33.20
2018-07-31T11:01:22.355Z,33.10
2018-07-31T11:06:25.537Z,33.00
2018-07-31T11:11:28.629Z,33.10
2018-07-31T11:16:31.764Z,33.10
2018-07-31T11:21:34.957Z,33.20
2018-07-31T11:26:38.115Z,33.30
2018-07-31T11:31:41.183Z,33.40
2018-07-31T11:36:44.520Z,33.30
2018-07-31T11:41:47.563Z,33.20
2018-07-31T11:46:50.620Z,33.20
2018-07-31T11:51:53.688Z,33.30
2018-07-31T11:56:56.731Z,33.40
2018-07-31T12:02:00.053Z,33.30
2018-07-31T12:07:03.129Z,33.30
2018-07-31T12:12:06.212Z,33.40
2018-07-31T12:17:09.316Z,33.50
2018-07-31T12:22:12.376Z,33.50
2018-07-31T12:27:15.442Z,33.60
2018-07-31T12:32:18.577Z,33.70
2018-07-31T12:37:21.671Z,33.80
2018-07-31T12:42:26.128Z,33.80
2018-07-31T12:47:29.262Z,33.90
2018-07-31T12:57:35.139Z,33.90
2018-07-31T13:02:38.328Z,33.80
2018-07-31T13:07:41.487Z,33.80
2018-07-31T13:12:44.525Z,33.90
2018-07-31T13:17:47.710Z,33.80
2018-07-31T13:22:50.805Z,33.80
2018-07-31T13:27:53.899Z,33.80
2018-07-31T13:32:56.883Z,33.80
2018-07-31T13:38:00.973Z,33.70
2018-07-31T13:43:04.076Z,33.80
2018-07-31T13:48:07.115Z,33.80
2018-07-31T13:53:10.277Z,33.80
2018-07-31T13:58:13.347Z,33.80
2018-07-31T14:03:16.443Z,33.70
2018-07-31T14:08:19.501Z,33.80
2018-07-31T14:13:22.620Z,33.90
2018-07-31T14:18:25.692Z,34.00
2018-07-31T14:23:28.721Z,34.00
2018-07-31T14:28:31.772Z,34.00
2018-07-31T14:33:34.898Z,34.00
2018-07-31T14:38:37.974Z,33.90
2018-07-31T14:43:41.033Z,34.00
2018-07-31T14:48:44.066Z,34.10
2018-07-31T14:53:47.121Z,34.20
2018-07-31T14:58:50.201Z,34.10
2018-07-31T15:03:53.617Z,34.00
2018-07-31T15:08:56.679Z,33.90
2018-07-31T15:13:59.736Z,34.00
2018-07-31T15:19:02.820Z,34.10
2018-07-31T15:24:05.920Z,34.20
2018-07-31T15:29:09.004Z,34.20
2018-07-31T15:34:12.061Z,34.20
2018-07-31T15:39:15.101Z,34.10
2018-07-31T15:44:18.156Z,34.00
2018-07-31T15:49:21.218Z,34.00
2018-07-31T15:54:24.332Z,34.00
2018-07-31T15:59:27.367Z,34.00
2018-07-31T16:04:30.388Z,34.00
2018-07-31T16:09:33.495Z,33.80
2018-07-31T16:14:36.644Z,33.80
2018-07-31T16:19:39.741Z,33.80
2018-07-31T16:24:42.789Z,33.80
2018-07-31T16:29:45.828Z,33.70
2018-07-31T16:34:48.995Z,33.60
2018-07-31T16:39:52.146Z,33.50
2018-07-31T16:44:55.187Z,33.40
2018-07-31T16:49:58.240Z,33.40
2018-07-31T16:55:01.300Z,33.20
2018-07-31T17:00:05.476Z,33.20
2018-07-31T17:05:08.579Z,33.20
2018-07-31T17:10:11.756Z,33.10
2018-07-31T17:15:15.102Z,32.90
2018-07-31T17:20:18.135Z,32.80
2018-07-31T17:25:21.276Z,32.60
2018-07-31T17:30:24.332Z,32.50
2018-07-31T17:35:27.412Z,32.40
2018-07-31T17:40:30.490Z,32.30
2018-07-31T17:45:33.563Z,32.20
2018-07-31T17:50:36.641Z,32.10
2018-07-31T17:55:39.816Z,32.00
2018-07-31T18:00:42.980Z,31.90
2018-07-31T18:05:46.048Z,31.80
2018-07-31T18:15:52.044Z,31.50
2018-07-31T18:20:56.180Z,31.30
2018-07-31T18:25:59.287Z,31.10
2018-07-31T18:31:02.398Z,30.90
2018-07-31T18:36:05.581Z,30.80
2018-07-31T18:41:08.940Z,30.60
2018-07-31T18:46:12.036Z,30.50
2018-07-31T18:51:15.091Z,30.30
2018-07-31T18:56:18.185Z,30.10
2018-07-31T19:01:21.568Z,29.90
2018-07-31T19:06:24.587Z,29.70
2018-07-31T19:11:27.731Z,29.70
2018-07-31T19:16:30.840Z,29.50
2018-07-31T19:21:33.948Z,29.40
2018-07-31T19:26:36.967Z,29.20
2018-07-31T19:31:40.075Z,29.10
2018-07-31T19:36:43.173Z,29.00
2018-07-31T19:41:46.269Z,28.80
2018-07-31T19:46:49.368Z,28.70
2018-07-31T19:51:52.406Z,28.50
2018-07-31T19:56:55.507Z,28.20
2018-07-31T20:01:58.559Z,28.10
2018-07-31T20:07:01.716Z,27.90
2018-07-31T20:12:04.775Z,27.70
2018-07-31T20:17:07.851Z,27.60
2018-07-31T20:22:10.903Z,27.40
2018-07-31T20:27:13.978Z,27.20
2018-07-31T20:32:17.075Z,27.10
2018-07-31T20:37:20.148Z,27.00
2018-07-31T20:42:23.178Z,26.80
2018-07-31T20:47:26.228Z,26.80
2018-07-31T20:52:29.331Z,26.80
2018-07-31T20:57:32.412Z,27.10
2018-07-31T21:02:35.605Z,27.30
2018-07-31T21:07:38.805Z,27.30
2018-07-31T21:12:41.944Z,27.40
2018-07-31T21:17:45.153Z,27.40
2018-07-31T21:22:48.258Z,27.30
2018-07-31T21:27:51.349Z,27.30
2018-07-31T21:32:54.547Z,27.20
2018-07-31T21:37:57.781Z,27.10
2018-07-31T21:43:00.859Z,26.90
2018-07-31T21:48:03.988Z,26.80
2018-07-31T21:53:07.025Z,26.60
2018-07-31T21:58:10.540Z,26.50
2018-07-31T22:08:16.536Z,26.20
2018-07-31T22:13:19.680Z,26.20
2018-07-31T22:18:22.899Z,26.20
2018-07-31T22:23:25.960Z,26.10
2018-07-31T22:28:29.039Z,26.00
2018-07-31T22:33:32.132Z,25.90
2018-07-31T22:38:35.256Z,25.80
2018-07-31T22:43:38.382Z,25.80
2018-07-31T22:48:41.380Z,25.80
2018-07-31T22:53:44.476Z,25.70
2018-07-31T22:58:47.619Z,25.70
2018-07-31T23:03:50.685Z,25.70
2018-07-31T23:08:53.795Z,25.70
2018-07-31T23:13:56.869Z,25.60
2018-07-31T23:19:00.251Z,25.60
2018-07-31T23:24:03.314Z,25.50
2018-07-31T23:29:06.513Z,25.40
2018-07-31T23:34:09.556Z,25.40
2018-07-31T23:39:13.652Z,25.40
2018-07-31T23:44:16.709Z,25.30
2018-07-31T23:49:19.783Z,25.30
2018-07-31T23:54:22.893Z,25.20
2018-07-31T23:59:25.934Z,25.10
